Estación de Petorca

Ultimos registro cada 15 minutos 73
Estación Fecha / Hora Temperatura Humedad Lluvia Velocidad Dirección Radiación Presion
73 Petorca 05-09-2026 18:00 16,5 65,5 0 0,5 248 16,9 981,8
72 Petorca 05-09-2026 17:45 17 64,4 0 1 241 20,6 982,7
71 Petorca 05-09-2026 17:30 19,2 57,2 0 2,5 209 101,9 982,4
70 Petorca 05-09-2026 17:15 20,1 54,6 0 2,5 212 239,4 982,1
69 Petorca 05-09-2026 17:00 20,6 53,3 0 2,5 222 295,6 982,1
68 Petorca 05-09-2026 16:45 21,4 52,5 0 2 218 349,4 982
67 Petorca 05-09-2026 16:30 21,4 49,5 0 2,5 222 403,1 981,9
66 Petorca 05-09-2026 16:15 21,6 51,5 0 2,5 233 455,6 982,1
65 Petorca 05-09-2026 16:00 21,7 51,1 0 2,5 232 503,1 981,8
64 Petorca 05-09-2026 15:45 22,3 50,9 0 2 243 554,4 981,8
63 Petorca 05-09-2026 15:30 22,3 49,6 0 2,5 244 599,4 981,6
62 Petorca 05-09-2026 15:15 23,1 46,8 0 2 247 635,6 981,4
61 Petorca 05-09-2026 15:00 23,4 45,7 0 1,5 247 673,1 981,5
60 Petorca 05-09-2026 14:45 24,2 44,9 0 2 236 705,6 981,6
59 Petorca 05-09-2026 14:30 23,5 42,8 0 2 244 738,1 981,5
58 Petorca 05-09-2026 14:15 23,7 45,7 0 3 226 764,4 981,5
57 Petorca 05-09-2026 14:00 24 46,1 0 2,5 227 785,6 981,8
56 Petorca 05-09-2026 13:45 23,6 45,4 0 2,5 230 806,9 981,9
55 Petorca 05-09-2026 13:30 23,8 44,5 0 2,5 229 824,4 982,1
54 Petorca 05-09-2026 13:15 23,5 46,2 0 2,5 227 838,1 982,3
53 Petorca 05-09-2026 13:00 22,9 47,9 0 3 236 841,9 982,4
52 Petorca 05-09-2026 12:45 22,5 45,7 0 3 230 844,4 982,4
51 Petorca 05-09-2026 12:30 22,4 44,4 0 2,5 229 841,9 982,6
50 Petorca 05-09-2026 12:15 22,3 44,8 0 1,5 225 838,1 982,8
49 Petorca 05-09-2026 12:00 23,3 42,7 0 0 206 824,4 983,3
48 Petorca 05-09-2026 11:45 23 37,9 0 0 197 811,9 983,1
47 Petorca 05-09-2026 11:30 23,1 36,7 0 0 298 791,9 983,4
46 Petorca 05-09-2026 11:15 22,8 40,3 0 0 63 768,1 983,6
45 Petorca 05-09-2026 11:00 21,2 45,4 0 0 244 740,6 983,9
44 Petorca 05-09-2026 10:45 19,7 51,7 0 0,5 191 706,9 984
43 Petorca 05-09-2026 10:30 18,7 59,1 0 0,5 213 674,4 984,3
42 Petorca 05-09-2026 10:15 17,8 59,3 0 0,5 199 635,6 984,3
41 Petorca 05-09-2026 10:00 16,6 66,2 0 1 188 595,6 984,5
40 Petorca 05-09-2026 09:45 16,9 64,4 0 0 149 550,6 984,4
39 Petorca 05-09-2026 09:30 15,9 65,9 0 0 132 503,1 984,7
38 Petorca 05-09-2026 09:15 15,3 66,6 0 0 212 453,1 984,8
37 Petorca 05-09-2026 09:00 14,3 69 0 0 108 403,1 984,9
36 Petorca 05-09-2026 08:45 12,6 76,4 0 0 46 349,4 985
35 Petorca 05-09-2026 08:30 11,4 82,9 0 0 13 299,4 985,1
34 Petorca 05-09-2026 08:15 9,5 94,8 0 0 45 248,1 985,2
33 Petorca 05-09-2026 08:00 5,5 97,3 0 0 18 30,6 985,2
32 Petorca 05-09-2026 07:45 5,3 97,4 0 0 18 19,4 985,2
31 Petorca 05-09-2026 07:30 5,1 97,4 0 0 28 15,6 985,4
30 Petorca 05-09-2026 07:15 5,3 97 0 0 10 9,4 985,4
29 Petorca 05-09-2026 07:00 5,9 97,8 0 0 18 3,1 985,2
28 Petorca 05-09-2026 06:45 4,6 97,2 0 0 7 0,6 985,2
27 Petorca 05-09-2026 06:30 5 97 0 0 6 0,6 985,1
26 Petorca 05-09-2026 06:15 4,9 96,9 0 0 1 0,6 985,1
25 Petorca 05-09-2026 06:00 5,2 96,5 0 0 29 0,6 985,2
24 Petorca 05-09-2026 05:45 5,5 96,9 0 0 25 0,6 985,3
23 Petorca 05-09-2026 05:30 5,4 96,6 0 0 7 0,6 985,1
22 Petorca 05-09-2026 05:15 5,6 96,5 0 0 24 0,6 985,2
21 Petorca 05-09-2026 05:00 6 96,7 0 0,5 27 0,6 985
20 Petorca 05-09-2026 04:45 5,9 96,5 0 0 27 0,6 985
19 Petorca 05-09-2026 04:30 5,9 96 0 0 22 0,6 985,2
18 Petorca 05-09-2026 04:15 6,9 96,3 0 0 37 0,6 985,2
17 Petorca 05-09-2026 04:00 6,6 95,3 0 0 3 0,6 985,4
16 Petorca 05-09-2026 03:45 7,8 94,9 0 0 51 0,6 985,4
15 Petorca 05-09-2026 03:30 6,9 96,1 0 0 22 0,6 985,6
14 Petorca 05-09-2026 03:15 7 96,3 0 0,5 22 0,6 985,8
13 Petorca 05-09-2026 03:00 6,8 95,8 0 0 355 0,6 986
12 Petorca 05-09-2026 02:45 8,1 95,1 0 0 24 0,6 986
11 Petorca 05-09-2026 02:30 8,1 95,1 0 0 4 0,6 986,2
10 Petorca 05-09-2026 02:15 8,4 94,5 0 0 282 0,6 986,3
9 Petorca 05-09-2026 02:00 8,2 96,1 0 0 45 0,6 986,4
8 Petorca 05-09-2026 01:45 8 96,8 0 0 18 0,6 986,6
7 Petorca 05-09-2026 01:30 7,6 96,7 0 0 24 0,6 986,7
6 Petorca 05-09-2026 01:15 7,4 96,1 0 0 6 0,6 986,6
5 Petorca 05-09-2026 01:00 7,6 95,8 0 0 237 0,6 986,9
4 Petorca 05-09-2026 00:45 8,1 94,9 0 0 37 0,6 986,7
3 Petorca 05-09-2026 00:30 8,2 95,1 0 0 13 0,6 986,9
2 Petorca 05-09-2026 00:15 8,2 94,6 0 0 14 0,6 987,1
1 Petorca 05-09-2026 00:00 8,4 93,9 0 0 14 0,6 987